Time;durP1;ratioP1;P1;durP2;ratioP2;P2;SDS_P1;SDS_P2;PMS_P1;PMS_P2;Temp;Humidity;BMP_temperature;BMP_pressure;BME280_temperature;BME280_humidity;BME280_pressure;Samples;Min_cycle;Max_cycle;Signal;HPM_P1;HPM_P2
2023/12/16 00:00:32;;;;;;;23.70;11.55;;;;;;;5.63;100.00;101138.06;5057827;28;20024;-57
2023/12/16 00:02:58;;;;;;;23.95;12.35;;;;;;;5.67;100.00;101151.16;5053960;28;20434;-60
2023/12/16 00:05:23;;;;;;;25.95;12.27;;;;;;;5.72;100.00;101145.44;5054292;28;20369;-60
2023/12/16 00:07:49;;;;;;;22.60;11.88;;;;;;;5.83;100.00;101150.88;5052872;28;20439;-60
2023/12/16 00:10:16;;;;;;;22.25;12.25;;;;;;;5.92;100.00;101147.50;5048434;28;20045;-61
2023/12/16 00:12:41;;;;;;;22.77;12.30;;;;;;;5.87;100.00;101146.13;5057967;28;20036;-61
2023/12/16 00:15:10;;;;;;;24.55;12.13;;;;;;;5.93;100.00;101156.41;5054313;28;20548;-57
2023/12/16 00:17:38;;;;;;;20.23;11.10;;;;;;;5.95;100.00;101167.06;5054402;28;20029;-61
2023/12/16 00:20:04;;;;;;;19.67;11.00;;;;;;;5.97;100.00;101163.28;5055096;28;20054;-61
2023/12/16 00:22:30;;;;;;;22.80;10.75;;;;;;;6.00;100.00;101159.50;5056251;28;20123;-62
2023/12/16 00:24:55;;;;;;;18.52;10.45;;;;;;;5.96;100.00;101153.53;5050789;28;20098;-61
2023/12/16 00:27:20;;;;;;;20.80;9.38;;;;;;;5.96;100.00;101152.69;5031953;28;20033;-61
2023/12/16 00:29:46;;;;;;;18.23;10.18;;;;;;;5.91;100.00;101139.53;5046553;28;20044;-61
2023/12/16 00:32:12;;;;;;;22.00;10.65;;;;;;;6.00;100.00;101141.59;5033288;28;20055;-61
2023/12/16 00:34:37;;;;;;;25.35;10.35;;;;;;;6.03;100.00;101145.88;5057540;28;20039;-57
2023/12/16 00:37:06;;;;;;;23.65;10.30;;;;;;;6.14;100.00;101151.28;5047421;28;20059;-57
2023/12/16 00:39:32;;;;;;;18.10;9.60;;;;;;;6.12;100.00;101151.38;5057697;28;20024;-60
2023/12/16 00:41:57;;;;;;;17.20;9.40;;;;;;;6.11;100.00;101149.69;5051822;28;20052;-62
2023/12/16 00:44:23;;;;;;;18.38;9.77;;;;;;;6.09;100.00;101131.97;5053546;28;20459;-58
2023/12/16 00:46:48;;;;;;;18.55;9.18;;;;;;;6.03;100.00;101145.88;5049218;28;20025;-58
2023/12/16 00:49:13;;;;;;;20.25;9.40;;;;;;;6.04;100.00;101164.53;5051731;28;20078;-58
2023/12/16 00:51:39;;;;;;;16.75;9.23;;;;;;;6.07;100.00;101171.53;5048894;28;20033;-61
2023/12/16 00:54:04;;;;;;;16.42;9.13;;;;;;;6.05;100.00;101176.16;5039299;28;20024;-58
2023/12/16 00:56:29;;;;;;;15.40;8.95;;;;;;;6.01;100.00;101180.91;5044515;28;20060;-58
2023/12/16 00:58:56;;;;;;;16.98;9.95;;;;;;;6.03;100.00;101188.88;5050482;28;20035;-62
2023/12/16 01:01:22;;;;;;;21.05;9.23;;;;;;;5.99;100.00;101187.38;5051050;28;20028;-62
2023/12/16 01:03:48;;;;;;;18.67;9.38;;;;;;;6.01;100.00;101201.56;5048003;28;20032;-63
2023/12/16 01:06:13;;;;;;;18.55;9.98;;;;;;;6.04;100.00;101196.78;5049140;28;20732;-63
2023/12/16 01:08:42;;;;;;;18.17;9.68;;;;;;;6.05;100.00;101192.28;5070895;28;20094;-62
2023/12/16 01:11:07;;;;;;;14.45;9.25;;;;;;;6.02;100.00;101193.34;5052919;28;20063;-59
2023/12/16 01:13:32;;;;;;;18.33;10.50;;;;;;;5.96;100.00;101187.59;5059462;28;20033;-62
2023/12/16 01:15:58;;;;;;;14.93;9.88;;;;;;;5.93;100.00;101191.34;5052323;28;20101;-62
2023/12/16 01:18:24;;;;;;;20.08;9.95;;;;;;;5.88;100.00;101190.81;5058487;28;20468;-61
2023/12/16 01:20:49;;;;;;;17.92;10.13;;;;;;;5.89;100.00;101190.72;5048160;28;20037;-62
2023/12/16 01:23:15;;;;;;;19.30;10.45;;;;;;;6.05;100.00;101186.91;5050370;28;20032;-60
2023/12/16 01:25:41;;;;;;;17.45;10.32;;;;;;;6.05;100.00;101186.91;5047209;28;20468;-62
2023/12/16 01:28:07;;;;;;;20.67;10.45;;;;;;;6.01;100.00;101180.06;5054709;28;20034;-58
2023/12/16 01:30:32;;;;;;;17.05;9.38;;;;;;;5.96;100.00;101182.22;5053578;28;20095;-58
2023/12/16 01:32:58;;;;;;;21.58;9.70;;;;;;;5.89;100.00;101179.97;5048888;28;20102;-61
2023/12/16 01:35:23;;;;;;;19.17;11.45;;;;;;;5.85;100.00;101183.00;5044113;28;20032;-61
2023/12/16 01:37:48;;;;;;;48.50;18.25;;;;;;;5.83;100.00;101184.94;5044712;28;20120;-61
2023/12/16 01:40:14;;;;;;;28.45;13.30;;;;;;;5.81;100.00;101190.41;5058012;28;20024;-61
2023/12/16 01:42:39;;;;;;;24.02;12.63;;;;;;;5.77;100.00;101183.56;5057954;28;20044;-61
2023/12/16 01:45:05;;;;;;;25.38;12.63;;;;;;;5.79;100.00;101181.63;5036044;28;20024;-61
2023/12/16 01:47:31;;;;;;;26.05;12.80;;;;;;;5.77;100.00;101180.88;5046554;28;20032;-61
2023/12/16 01:49:57;;;;;;;23.23;12.27;;;;;;;5.76;100.00;101187.22;5042362;28;20380;-61
2023/12/16 01:52:23;;;;;;;24.38;12.15;;;;;;;5.75;100.00;101188.19;5042006;28;20460;-56
2023/12/16 01:54:49;;;;;;;26.92;12.65;;;;;;;5.74;100.00;101189.19;5056238;28;20030;-56
2023/12/16 01:57:15;;;;;;;27.25;12.60;;;;;;;5.71;100.00;101189.38;5048424;28;20029;-61
2023/12/16 01:59:41;;;;;;;28.80;12.55;;;;;;;5.68;100.00;101190.47;5036132;28;20048;-60
2023/12/16 02:02:07;;;;;;;21.92;11.60;;;;;;;5.71;100.00;101195.63;5041948;28;20569;-61
2023/12/16 02:04:34;;;;;;;22.23;12.00;;;;;;;5.71;100.00;101198.31;5054524;28;20017;-61
2023/12/16 02:07:00;;;;;;;26.30;13.25;;;;;;;5.73;100.00;101198.19;5043951;28;20482;-61
2023/12/16 02:09:26;;;;;;;22.95;11.68;;;;;;;5.76;100.00;101197.94;5039853;28;20024;-61
2023/12/16 02:11:52;;;;;;;24.65;12.10;;;;;;;5.76;100.00;101197.94;5036667;28;20063;-61
2023/12/16 02:14:18;;;;;;;22.75;12.50;;;;;;;5.76;100.00;101197.94;5051328;28;20383;-57
2023/12/16 02:16:44;;;;;;;23.52;12.30;;;;;;;5.75;100.00;101207.00;5045570;28;20108;-58
2023/12/16 02:19:12;;;;;;;23.52;11.93;;;;;;;5.84;100.00;101211.72;5035681;28;20060;-57
2023/12/16 02:21:37;;;;;;;24.67;12.43;;;;;;;5.84;100.00;101208.13;5040581;28;20035;-58
2023/12/16 02:24:03;;;;;;;19.95;11.50;;;;;;;5.78;100.00;101201.38;5055306;28;20024;-57
2023/12/16 02:26:28;;;;;;;20.33;10.98;;;;;;;5.93;100.00;101213.72;5048994;28;20472;-57
2023/12/16 02:28:54;;;;;;;22.95;10.98;;;;;;;5.91;100.00;101221.00;5050195;28;20062;-58
2023/12/16 02:31:19;;;;;;;21.08;10.98;;;;;;;5.90;100.00;101213.06;5050314;28;20123;-57
2023/12/16 02:33:45;;;;;;;20.38;10.80;;;;;;;5.92;100.00;101214.69;5049128;28;20082;-57
2023/12/16 02:36:11;;;;;;;21.52;11.05;;;;;;;5.97;100.00;101216.19;5043091;28;20124;-61
2023/12/16 02:38:36;;;;;;;21.98;11.43;;;;;;;5.92;100.00;101213.78;5054384;28;20119;-57
2023/12/16 02:41:01;;;;;;;20.20;11.55;;;;;;;5.87;100.00;101208.78;5041378;28;20025;-60
2023/12/16 02:43:27;;;;;;;18.67;10.85;;;;;;;5.87;100.00;101203.41;5044548;28;20060;-60
2023/12/16 02:45:52;;;;;;;17.63;10.25;;;;;;;6.16;100.00;101192.34;5053024;28;20073;-57
2023/12/16 02:48:17;;;;;;;19.38;10.23;;;;;;;6.01;100.00;101197.03;5040990;28;20032;-57
2023/12/16 02:50:43;;;;;;;23.17;11.85;;;;;;;5.91;100.00;101196.81;5047437;28;20033;-61
2023/12/16 02:53:08;;;;;;;21.05;11.20;;;;;;;5.90;100.00;101197.81;5037788;28;20021;-61
2023/12/16 02:55:33;;;;;;;21.48;11.52;;;;;;;5.86;100.00;101204.38;5042746;28;20032;-61
2023/12/16 02:57:58;;;;;;;20.92;11.65;;;;;;;5.89;100.00;101208.66;5042643;28;20039;-62
2023/12/16 03:00:24;;;;;;;19.98;11.10;;;;;;;5.87;100.00;101210.63;5041072;28;20495;-61
2023/12/16 03:02:49;;;;;;;20.27;10.82;;;;;;;5.86;100.00;101217.78;5047242;28;20024;-57
2023/12/16 03:05:14;;;;;;;18.58;10.52;;;;;;;5.86;100.00;101220.47;5058408;28;20054;-67
2023/12/16 03:07:40;;;;;;;18.45;9.60;;;;;;;5.84;100.00;101221.56;5044115;28;20025;-57
2023/12/16 03:10:06;;;;;;;15.73;8.85;;;;;;;5.94;100.00;101222.63;5048182;28;20057;-60
2023/12/16 03:12:31;;;;;;;17.25;9.77;;;;;;;5.96;100.00;101219.84;5041301;28;20045;-61
2023/12/16 03:14:56;;;;;;;17.55;9.45;;;;;;;5.89;100.00;101220.28;5047167;28;20114;-61
2023/12/16 03:17:22;;;;;;;17.73;9.63;;;;;;;5.86;100.00;101217.78;5044573;28;20020;-60
2023/12/16 03:19:47;;;;;;;17.67;9.90;;;;;;;5.76;100.00;101218.59;5054500;28;20029;-61
2023/12/16 03:22:12;;;;;;;22.58;10.25;;;;;;;5.80;100.00;101215.56;5042977;28;20020;-61
2023/12/16 03:24:38;;;;;;;19.35;9.68;;;;;;;5.77;100.00;101215.81;5035009;28;20435;-61
2023/12/16 03:27:03;;;;;;;16.42;9.52;;;;;;;5.76;100.00;101218.59;5039572;28;20017;-57
2023/12/16 03:29:29;;;;;;;18.58;10.32;;;;;;;5.77;100.00;101218.50;5055993;28;20457;-57
2023/12/16 03:31:55;;;;;;;19.35;10.38;;;;;;;5.76;100.00;101223.97;5043835;28;20033;-57
2023/12/16 03:34:21;;;;;;;18.20;10.30;;;;;;;5.80;100.00;101226.31;5053019;28;20032;-57
2023/12/16 03:36:46;;;;;;;20.55;10.52;;;;;;;5.80;100.00;101231.69;5051338;28;20026;-57
2023/12/16 03:39:12;;;;;;;18.00;9.88;;;;;;;5.87;100.00;101224.91;5045198;28;20093;-57
2023/12/16 03:41:37;;;;;;;23.55;11.88;;;;;;;5.78;100.00;101220.19;5049476;28;20035;-57
2023/12/16 03:44:03;;;;;;;20.48;10.73;;;;;;;5.67;100.00;101214.75;5045795;28;20074;-58
2023/12/16 03:46:28;;;;;;;19.85;10.70;;;;;;;5.55;100.00;101216.50;5052079;28;20464;-57
2023/12/16 03:48:53;;;;;;;22.67;12.40;;;;;;;5.48;100.00;101216.09;5066825;28;20083;-58
2023/12/16 03:51:21;;;;;;;28.00;12.35;;;;;;;5.51;100.00;101219.53;5046510;28;20024;-61
2023/12/16 03:53:46;;;;;;;25.55;12.20;;;;;;;5.55;100.00;101204.91;5048312;28;20499;-62
2023/12/16 03:56:11;;;;;;;26.60;13.10;;;;;;;5.51;100.00;101216.84;5045779;28;20017;-61
2023/12/16 03:58:37;;;;;;;21.33;11.25;;;;;;;5.47;100.00;101218.88;5045734;28;20089;-60
2023/12/16 04:01:04;;;;;;;22.30;11.77;;;;;;;5.48;100.00;101218.78;5060739;28;20137;-60
2023/12/16 04:03:29;;;;;;;24.50;12.20;;;;;;;5.46;100.00;101218.03;5068749;28;20419;-61
2023/12/16 04:05:55;;;;;;;24.10;12.48;;;;;;;5.47;100.00;101226.94;5045365;28;20032;-60
2023/12/16 04:08:20;;;;;;;24.58;12.27;;;;;;;5.50;100.00;101229.41;5043910;28;20489;-61
2023/12/16 04:10:45;;;;;;;29.73;12.57;;;;;;;5.49;100.00;101222.31;5052520;28;20433;-57
2023/12/16 04:13:11;;;;;;;28.80;13.57;;;;;;;5.46;100.00;101228.78;5051543;28;20032;-62
2023/12/16 04:15:36;;;;;;;27.95;13.25;;;;;;;5.48;100.00;101229.53;5047959;28;20044;-61
2023/12/16 04:18:01;;;;;;;28.27;13.15;;;;;;;5.44;100.00;101236.06;5083189;22;20041;-53
2023/12/16 04:20:28;;;;;;;25.95;13.60;;;;;;;5.44;100.00;101230.72;5048108;28;20028;-53
2023/12/16 04:22:54;;;;;;;26.02;13.25;;;;;;;5.42;100.00;101239.84;5057146;28;20386;-53
2023/12/16 04:25:19;;;;;;;25.80;13.10;;;;;;;5.39;100.00;101230.19;5040470;28;20029;-53
2023/12/16 04:27:44;;;;;;;25.85;12.65;;;;;;;5.39;100.00;101229.31;5048861;28;20039;-54
2023/12/16 04:30:10;;;;;;;25.33;12.93;;;;;;;5.38;100.00;101227.63;5052058;28;20023;-53
2023/12/16 04:32:36;;;;;;;23.90;12.80;;;;;;;5.40;100.00;101228.38;5058340;28;20043;-53
2023/12/16 04:35:01;;;;;;;22.33;12.65;;;;;;;5.48;100.00;101236.72;5057609;28;20024;-53
2023/12/16 04:37:27;;;;;;;26.02;12.55;;;;;;;5.48;100.00;101237.59;5057280;28;20020;-53
2023/12/16 04:39:52;;;;;;;28.95;13.80;;;;;;;5.47;100.00;101240.38;5061805;28;20472;-53
2023/12/16 04:42:17;;;;;;;29.02;14.40;;;;;;;5.42;100.00;101242.53;5055110;28;20056;-53
2023/12/16 04:44:43;;;;;;;31.13;13.70;;;;;;;5.37;100.00;101234.81;5057539;28;20036;-53
2023/12/16 04:47:08;;;;;;;24.42;12.93;;;;;;;5.38;100.00;101231.16;5055181;28;20395;-53
2023/12/16 04:49:35;;;;;;;33.85;14.05;;;;;;;5.37;100.00;101228.56;5049185;28;20537;-53
2023/12/16 04:52:00;;;;;;;27.90;13.68;;;;;;;5.42;100.00;101229.97;5052641;28;20029;-53
2023/12/16 04:54:28;;;;;;;22.30;12.73;;;;;;;5.44;100.00;101230.72;5057498;28;20021;-53
2023/12/16 04:56:53;;;;;;;28.10;13.30;;;;;;;5.42;100.00;101218.34;5056047;28;20032;-53
2023/12/16 04:59:19;;;;;;;23.88;13.23;;;;;;;5.44;100.00;101230.72;5057018;28;20050;-53
2023/12/16 05:01:44;;;;;;;28.08;13.55;;;;;;;5.47;100.00;101243.06;5052362;28;20075;-52
2023/12/16 05:04:09;;;;;;;24.88;13.40;;;;;;;5.45;100.00;101221.69;5057527;28;20100;-53
2023/12/16 05:06:35;;;;;;;26.02;13.07;;;;;;;5.40;100.00;101231.06;5054893;28;20055;-52
2023/12/16 05:09:00;;;;;;;30.30;13.50;;;;;;;5.38;100.00;101236.53;5042522;28;20032;-52
2023/12/16 05:11:26;;;;;;;22.88;12.60;;;;;;;5.45;100.00;101236.97;5049873;28;20107;-52
2023/12/16 05:13:51;;;;;;;27.33;15.43;;;;;;;5.49;100.00;101244.66;5049334;28;20036;-52
2023/12/16 05:16:20;;;;;;;30.17;13.82;;;;;;;5.56;100.00;101246.91;5056247;28;20107;-52
2023/12/16 05:18:46;;;;;;;25.00;13.65;;;;;;;5.59;100.00;101249.38;5084039;28;20032;-52
2023/12/16 05:21:12;;;;;;;23.63;12.80;;;;;;;5.59;100.00;101244.00;5066675;28;20365;-52
2023/12/16 05:23:37;;;;;;;22.80;11.32;;;;;;;5.59;100.00;101239.50;5057249;28;20471;-52
2023/12/16 05:26:03;;;;;;;23.35;12.00;;;;;;;5.53;100.00;101241.75;5055756;28;20108;-48
2023/12/16 05:28:28;;;;;;;22.08;11.85;;;;;;;5.55;100.00;101240.66;5056405;28;20036;-48
2023/12/16 05:30:54;;;;;;;21.35;11.27;;;;;;;5.52;100.00;101246.25;5053663;28;20121;-50
2023/12/16 05:33:19;;;;;;;21.55;11.40;;;;;;;5.48;100.00;101245.63;5051559;28;20353;-50
2023/12/16 05:35:45;;;;;;;22.55;11.95;;;;;;;5.46;100.00;101244.03;5052638;28;20029;-50
2023/12/16 05:38:10;;;;;;;22.55;10.90;;;;;;;5.43;100.00;101245.09;5056749;28;20052;-50
2023/12/16 05:40:35;;;;;;;19.92;10.65;;;;;;;5.43;100.00;101246.94;5055020;28;20078;-50
2023/12/16 05:43:01;;;;;;;22.13;10.73;;;;;;;5.37;100.00;101245.56;5053464;28;20541;-49
2023/12/16 05:45:27;;;;;;;23.67;11.20;;;;;;;5.36;100.00;101242.97;5055202;28;20083;-49
2023/12/16 05:47:52;;;;;;;19.95;10.43;;;;;;;5.35;100.00;101242.13;5069258;28;20032;-50
2023/12/16 05:50:17;;;;;;;17.65;10.27;;;;;;;5.39;100.00;101250.81;5050018;28;20494;-49
2023/12/16 05:52:43;;;;;;;19.38;10.25;;;;;;;5.40;100.00;101247.16;5045443;28;20115;-49
2023/12/16 05:55:09;;;;;;;20.38;11.43;;;;;;;5.37;100.00;101245.56;5050642;28;20016;-49
2023/12/16 05:57:34;;;;;;;18.98;9.73;;;;;;;5.39;100.00;101245.44;5055529;28;20519;-49
2023/12/16 06:00:01;;;;;;;17.73;9.43;;;;;;;5.35;100.00;101238.59;5038673;28;20159;-49
2023/12/16 06:02:26;;;;;;;16.60;9.90;;;;;;;5.35;100.00;101255.53;5047277;28;20111;-49
2023/12/16 06:04:51;;;;;;;20.55;10.10;;;;;;;5.43;100.00;101255.84;5051224;28;20047;-52
2023/12/16 06:07:18;;;;;;;19.58;10.93;;;;;;;5.41;100.00;101255.09;5051703;28;20479;-52
2023/12/16 06:09:43;;;;;;;20.50;10.57;;;;;;;5.41;100.00;101262.28;5052580;28;20028;-52
2023/12/16 06:12:09;;;;;;;21.10;10.80;;;;;;;5.42;100.00;101267.56;5047629;28;20025;-49
2023/12/16 06:14:34;;;;;;;17.88;10.10;;;;;;;5.48;100.00;101260.91;5045236;28;20028;-49
2023/12/16 06:17:00;;;;;;;21.58;10.93;;;;;;;5.46;100.00;101257.47;5043032;28;20382;-49
2023/12/16 06:19:26;;;;;;;22.88;11.45;;;;;;;5.49;100.00;101267.97;5067785;28;20036;-49
2023/12/16 06:21:51;;;;;;;22.23;10.93;;;;;;;5.45;100.00;101267.34;5051089;28;20494;-49
2023/12/16 06:24:16;;;;;;;27.73;11.88;;;;;;;5.46;100.00;101269.06;5050947;28;20071;-49
2023/12/16 06:26:42;;;;;;;19.70;10.75;;;;;;;5.60;100.00;101273.41;5053026;28;20040;-49
2023/12/16 06:29:07;;;;;;;19.45;10.63;;;;;;;5.57;100.00;101275.47;5048737;28;20034;-49
2023/12/16 06:31:32;;;;;;;20.13;11.30;;;;;;;5.66;100.00;101277.50;5051722;28;20048;-49
2023/12/16 06:33:58;;;;;;;20.35;11.30;;;;;;;5.59;100.00;101274.41;5052310;28;20463;-51
2023/12/16 06:36:24;;;;;;;21.88;10.82;;;;;;;5.61;100.00;101277.00;5036186;28;20021;-52
2023/12/16 06:38:50;;;;;;;17.80;9.93;;;;;;;5.62;100.00;101289.44;5053009;28;20035;-52
2023/12/16 06:41:15;;;;;;;20.55;10.48;;;;;;;5.56;100.00;101288.06;5055003;28;20028;-52
2023/12/16 06:43:41;;;;;;;17.15;10.15;;;;;;;5.52;100.00;101286.53;5050371;28;20387;-52
2023/12/16 06:46:07;;;;;;;17.30;10.55;;;;;;;5.49;100.00;101281.41;5062956;28;20028;-52
2023/12/16 06:48:32;;;;;;;21.25;10.30;;;;;;;5.42;100.00;101270.25;5046445;28;20384;-52
2023/12/16 06:50:59;;;;;;;21.27;10.65;;;;;;;5.39;100.00;101285.69;5041462;28;20029;-49
2023/12/16 06:53:25;;;;;;;21.95;11.73;;;;;;;5.23;100.00;101267.13;5033117;28;20032;-49
2023/12/16 06:55:52;;;;;;;29.42;12.02;;;;;;;5.25;100.00;101267.91;5037831;28;20379;-51
2023/12/16 06:58:18;;;;;;;21.92;12.10;;;;;;;5.26;100.00;101273.13;5049079;28;20028;-53
2023/12/16 07:00:44;;;;;;;23.40;11.77;;;;;;;5.36;100.00;101278.72;5045082;28;20021;-52
2023/12/16 07:03:10;;;;;;;19.52;10.98;;;;;;;5.31;100.00;101278.19;5047446;28;20027;-53
2023/12/16 07:05:35;;;;;;;19.05;10.40;;;;;;;5.20;100.00;101275.41;5053475;28;20396;-52
2023/12/16 07:08:01;;;;;;;17.70;10.27;;;;;;;5.13;100.00;101277.66;5046528;28;20040;-52
2023/12/16 07:10:27;;;;;;;21.25;10.73;;;;;;;5.13;100.00;101274.13;5047791;28;20024;-52
2023/12/16 07:12:52;;;;;;;17.88;10.23;;;;;;;5.13;100.00;101284.84;5053721;28;20028;-52
2023/12/16 07:15:20;;;;;;;20.48;10.55;;;;;;;5.13;100.00;101285.69;5050681;28;20029;-52
2023/12/16 07:17:46;;;;;;;20.98;11.10;;;;;;;5.16;100.00;101290.00;5049925;28;20031;-52
2023/12/16 07:20:12;;;;;;;23.13;10.63;;;;;;;5.15;100.00;101294.50;5045423;28;20024;-52
2023/12/16 07:22:37;;;;;;;21.20;10.18;;;;;;;5.16;100.00;101292.69;5047425;28;20036;-52
2023/12/16 07:25:03;;;;;;;21.23;11.00;;;;;;;5.14;100.00;101281.22;5046890;28;20025;-52
2023/12/16 07:27:29;;;;;;;21.90;11.38;;;;;;;5.27;100.00;101293.66;5044902;28;20024;-52
2023/12/16 07:29:54;;;;;;;20.77;10.70;;;;;;;5.30;100.00;101292.59;5047551;28;20028;-52
2023/12/16 07:32:19;;;;;;;23.50;10.50;;;;;;;5.38;100.00;101292.91;5052019;28;20039;-52
2023/12/16 07:34:45;;;;;;;22.52;10.70;;;;;;;5.41;100.00;101294.50;5049384;28;20690;-52
2023/12/16 07:37:10;;;;;;;20.52;10.57;;;;;;;5.38;100.00;101300.09;5047719;28;20425;-52
2023/12/16 07:39:36;;;;;;;19.73;10.95;;;;;;;5.37;100.00;101298.38;5042818;28;20604;-52
2023/12/16 07:42:01;;;;;;;20.60;10.70;;;;;;;5.35;100.00;101313.75;5044047;28;20556;-52
2023/12/16 07:44:28;;;;;;;21.50;10.80;;;;;;;5.36;100.00;101320.81;5070783;28;20032;-52
2023/12/16 07:46:54;;;;;;;22.45;10.55;;;;;;;5.51;100.00;101318.88;5052244;28;20084;-52
2023/12/16 07:49:24;;;;;;;22.35;10.85;;;;;;;5.55;100.00;101323.91;5066752;28;20040;-52
2023/12/16 07:51:50;;;;;;;21.25;10.93;;;;;;;5.63;100.00;101326.06;5047514;28;20105;-52
2023/12/16 07:54:16;;;;;;;21.75;10.75;;;;;;;5.62;100.00;101330.56;5056215;28;20108;-52
2023/12/16 07:56:41;;;;;;;24.00;9.73;;;;;;;5.67;100.00;101325.72;5045920;28;20605;-52
2023/12/16 07:59:07;;;;;;;20.10;9.98;;;;;;;5.76;100.00;101331.41;5048536;28;20033;-52
2023/12/16 08:01:33;;;;;;;19.92;9.93;;;;;;;5.75;100.00;101324.31;5046556;28;20379;-52
2023/12/16 08:03:58;;;;;;;14.75;9.35;;;;;;;5.81;100.00;101324.72;5043892;28;20021;-52
2023/12/16 08:06:24;;;;;;;18.30;10.15;;;;;;;5.92;100.00;101327.53;5038211;28;20016;-52
2023/12/16 08:08:49;;;;;;;16.23;9.25;;;;;;;6.02;100.00;101321.50;5059543;28;20036;-52
2023/12/16 08:11:15;;;;;;;18.70;9.75;;;;;;;6.03;100.00;101333.97;5044033;28;20032;-52
2023/12/16 08:13:40;;;;;;;17.35;9.48;;;;;;;6.08;100.00;101338.03;5052063;28;20165;-52
2023/12/16 08:16:08;;;;;;;17.88;9.50;;;;;;;6.04;100.00;101341.91;5048812;28;20356;-53
2023/12/16 08:18:33;;;;;;;18.90;10.38;;;;;;;6.09;100.00;101339.75;5049738;28;20067;-57
2023/12/16 08:21:00;;;;;;;15.93;8.98;;;;;;;6.18;100.00;101332.81;5053010;28;20024;-57
2023/12/16 08:23:25;;;;;;;18.98;8.93;;;;;;;6.44;100.00;101336.28;5052116;28;20426;-57
2023/12/16 08:25:51;;;;;;;20.85;9.65;;;;;;;6.47;100.00;101335.19;5055359;28;20119;-57
2023/12/16 08:28:16;;;;;;;14.20;8.80;;;;;;;6.50;100.00;101326.91;5053205;28;20031;-57
2023/12/16 08:30:43;;;;;;;17.42;9.50;;;;;;;6.63;100.00;101324.13;5054367;28;20047;-57
2023/12/16 08:33:10;;;;;;;15.57;7.85;;;;;;;6.74;100.00;101335.81;5056269;28;20037;-57
2023/12/16 08:35:36;;;;;;;15.32;7.72;;;;;;;6.76;100.00;101336.56;5060106;28;20047;-58
2023/12/16 08:38:02;;;;;;;13.55;8.20;;;;;;;6.73;100.00;101344.88;5054862;28;20032;-57
2023/12/16 08:40:28;;;;;;;18.15;7.90;;;;;;;6.80;100.00;101340.72;5058939;28;20025;-57
2023/12/16 08:42:54;;;;;;;14.07;8.02;;;;;;;6.92;100.00;101338.94;5032486;28;20029;-57
2023/12/16 08:45:20;;;;;;;13.98;8.60;;;;;;;6.66;100.00;101340.91;5046164;28;20185;-57
2023/12/16 08:47:45;;;;;;;12.15;7.75;;;;;;;6.70;100.00;101339.69;5050285;28;20836;-57
2023/12/16 08:50:11;;;;;;;11.60;7.18;;;;;;;6.82;100.00;101342.47;5056366;28;20025;-57
2023/12/16 08:52:36;;;;;;;14.18;7.88;;;;;;;6.86;100.00;101333.16;5049661;28;20033;-57
2023/12/16 08:55:05;;;;;;;16.73;7.70;;;;;;;6.91;100.00;101342.59;5049890;28;20020;-58
2023/12/16 08:57:31;;;;;;;16.08;8.35;;;;;;;6.86;100.00;101341.22;5051936;28;20086;-57
2023/12/16 08:59:57;;;;;;;12.40;7.97;;;;;;;6.93;100.00;101337.09;5054685;28;20119;-58
2023/12/16 09:02:23;;;;;;;11.65;7.70;;;;;;;7.05;100.00;101344.25;5047572;28;20103;-57
2023/12/16 09:04:49;;;;;;;14.35;8.30;;;;;;;7.21;100.00;101352.00;5053885;28;20089;-50
2023/12/16 09:07:14;;;;;;;12.13;7.55;;;;;;;7.44;100.00;101353.75;5050054;28;20031;-50
2023/12/16 09:09:40;;;;;;;11.88;6.65;;;;;;;7.60;100.00;101361.47;5048436;28;20024;-49
2023/12/16 09:12:07;;;;;;;12.48;7.13;;;;;;;7.69;100.00;101354.50;5048904;28;20036;-47
2023/12/16 09:14:33;;;;;;;12.60;7.00;;;;;;;7.77;100.00;101356.56;5051719;28;20024;-47
2023/12/16 09:17:00;;;;;;;15.88;7.75;;;;;;;8.03;100.00;101358.03;5047517;28;20043;-49
2023/12/16 09:19:27;;;;;;;11.82;6.80;;;;;;;8.07;100.00;101355.97;5037157;28;20033;-47
2023/12/16 09:21:52;;;;;;;14.52;6.97;;;;;;;8.19;100.00;101357.63;5050072;28;20482;-48
2023/12/16 09:24:17;;;;;;;11.23;6.80;;;;;;;8.42;100.00;101366.59;5046708;28;20021;-48
2023/12/16 09:26:44;;;;;;;13.35;7.90;;;;;;;8.70;100.00;101362.47;5050302;28;20021;-48
2023/12/16 09:29:11;;;;;;;13.73;7.20;;;;;;;8.86;100.00;101370.13;5051361;28;20383;-48
2023/12/16 09:31:36;;;;;;;13.55;8.02;;;;;;;8.79;100.00;101377.00;5053620;28;20383;-48
2023/12/16 09:34:02;;;;;;;13.15;8.02;;;;;;;8.93;100.00;101373.16;5060022;28;20024;-48
2023/12/16 09:36:29;;;;;;;13.40;8.30;;;;;;;9.03;100.00;101367.81;5040913;28;20423;-48
2023/12/16 09:38:55;;;;;;;14.15;7.00;;;;;;;9.05;100.00;101366.72;5054757;28;20431;-48
2023/12/16 09:41:21;;;;;;;15.05;8.48;;;;;;;9.17;100.00;101362.13;5055005;28;20048;-48
2023/12/16 09:43:51;;;;;;;15.00;7.30;;;;;;;9.43;100.00;101344.50;5052320;28;20115;-57
2023/12/16 09:46:18;;;;;;;16.10;8.35;;;;;;;9.50;100.00;101349.38;5046485;28;20040;-56
2023/12/16 09:48:44;;;;;;;15.10;8.52;;;;;;;9.62;100.00;101348.31;5045073;28;20043;-56
2023/12/16 09:51:11;;;;;;;14.30;8.10;;;;;;;9.75;100.00;101348.94;5039078;28;20029;-56
2023/12/16 09:53:36;;;;;;;16.65;7.00;;;;;;;9.74;100.00;101346.34;5048327;28;20032;-56
2023/12/16 09:56:02;;;;;;;12.90;8.40;;;;;;;9.68;100.00;101336.09;5048416;28;20062;-56
2023/12/16 09:58:31;;;;;;;14.57;8.25;;;;;;;9.91;100.00;101342.19;5048975;28;20017;-56
2023/12/16 10:00:58;;;;;;;15.15;8.02;;;;;;;9.43;100.00;101341.81;5052649;28;20024;-56
2023/12/16 10:03:23;;;;;;;12.82;7.82;;;;;;;9.28;100.00;101351.25;5049162;28;20025;-57
2023/12/16 10:05:50;;;;;;;14.73;8.65;;;;;;;9.28;100.00;101345.84;5052294;28;20467;-57
2023/12/16 10:08:15;;;;;;;14.55;8.43;;;;;;;9.50;100.00;101339.41;5048711;28;20036;-57
2023/12/16 10:10:42;;;;;;;13.88;8.23;;;;;;;9.54;100.00;101334.63;5066829;28;20051;-56
2023/12/16 10:13:07;;;;;;;13.48;7.75;;;;;;;9.80;100.00;101335.88;5049455;28;20033;-56
2023/12/16 10:15:34;;;;;;;14.02;8.43;;;;;;;9.54;100.00;101329.22;5047444;28;20077;-56
2023/12/16 10:18:01;;;;;;;15.77;8.73;;;;;;;9.81;100.00;101325.91;5076058;22;20102;-74
2023/12/16 10:20:27;;;;;;;17.98;8.55;;;;;;;10.18;100.00;101334.28;5084222;28;20044;-78
2023/12/16 10:22:52;;;;;;;15.18;8.40;;;;;;;10.06;100.00;101321.84;5059202;28;20096;-77
2023/12/16 10:25:18;;;;;;;15.40;8.30;;;;;;;10.34;100.00;101319.38;5053540;28;20259;-77
2023/12/16 10:27:44;;;;;;;14.38;8.48;;;;;;;10.36;100.00;101312.00;5081296;28;20256;-77
2023/12/16 10:30:10;;;;;;;16.88;8.85;;;;;;;10.43;100.00;101305.88;5061918;28;20352;-77
2023/12/16 10:32:39;;;;;;;15.77;9.25;;;;;;;10.68;100.00;101315.28;5044203;28;20024;-75
2023/12/16 10:35:05;;;;;;;14.27;8.88;;;;;;;11.07;100.00;101304.41;5050372;28;20071;-75
2023/12/16 10:37:31;;;;;;;14.70;8.57;;;;;;;11.35;100.00;101313.50;5062724;28;20040;-75
2023/12/16 10:39:57;;;;;;;13.30;7.88;;;;;;;11.10;100.00;101309.53;5055353;28;20029;-76
2023/12/16 10:42:22;;;;;;;15.90;8.70;;;;;;;11.43;100.00;101304.63;5054853;28;20271;-75
2023/12/16 10:44:49;;;;;;;14.55;8.15;;;;;;;11.69;100.00;101309.41;5058683;28;20052;-75
2023/12/16 10:47:17;;;;;;;13.27;7.90;;;;;;;11.41;100.00;101304.75;5058496;28;20020;-75
2023/12/16 10:49:47;;;;;;;15.13;8.10;;;;;;;11.47;100.00;101300.59;5059671;28;20321;-75
2023/12/16 10:52:17;;;;;;;14.82;8.20;;;;;;;11.10;100.00;101295.16;5055462;28;20100;-74
2023/12/16 10:54:46;;;;;;;14.80;7.88;;;;;;;10.83;100.00;101301.31;5040651;28;20071;-74
2023/12/16 10:57:38;;;;;;;14.90;7.93;;;;;;;10.65;100.00;101299.31;5058051;28;20096;-74
2023/12/16 11:00:07;;;;;;;13.40;7.78;;;;;;;10.52;100.00;101301.47;5014051;28;20239;-75
2023/12/16 11:02:54;;;;;;;13.05;7.75;;;;;;;10.50;100.00;101301.59;5056755;28;20020;-75
2023/12/16 11:05:36;;;;;;;14.10;8.07;;;;;;;10.28;100.00;101301.88;5045994;28;20028;-75